WMT411 ENTO-LATI
Flight info
| Callsign | WMT411 |
|---|---|
| Flight time | 2h 32m |
| Altitude | 37000 |
| Route | BOMGU Y440 SABAK DCT LALIL DCT AMROR DCT REGLI DCT BILNA DCT KOPAT DCT KEROP DCT TORTO/N0441F380 DCT YUYUH DCT MODRA/N0439F370 DCT AKIKA/N0442F380 DCT INLOT |
| Aircraft | A321/M-SDE1E2E3FGIJ1J4RWXY/LB1 |
Departure
| Time | 2026-04-28 09:26 |
|---|---|
| Airport | Sandefjord Airport, Torp (ENTO) |
Arrival
| Time | 2026-04-28 11:59 |
|---|---|
| Airport | Tirana International Airport Mother Teresa (LATI) |
| Time | Latitude | Longitude | Altitude | Speed | Heading |
|---|---|---|---|---|---|
| 2026-04-28 09:06 | 59.18003 | 10.25412 | 277 ft | 0 kts | 224° |
| 2026-04-28 09:21 | 59.18004 | 10.25412 | 277 ft | 0 kts | 224° |
| 2026-04-28 09:23 | 59.18003 | 10.25412 | 277 ft | 0 kts | 224° |
| 2026-04-28 09:23 | 59.18000 | 10.25412 | 277 ft | 1 kts | 199° |
| 2026-04-28 09:24 | 59.17982 | 10.25414 | 277 ft | 4 kts | 166° |
| 2026-04-28 09:24 | 59.17943 | 10.25453 | 276 ft | 9 kts | 150° |
| 2026-04-28 09:24 | 59.17877 | 10.25533 | 275 ft | 14 kts | 147° |
| 2026-04-28 09:24 | 59.17784 | 10.25650 | 274 ft | 18 kts | 148° |
| 2026-04-28 09:25 | 59.17669 | 10.25795 | 274 ft | 18 kts | 147° |
| 2026-04-28 09:25 | 59.17668 | 10.25865 | 275 ft | 4 kts | 41° |
| 2026-04-28 09:25 | 59.17690 | 10.25884 | 278 ft | 3 kts | 12° |
| 2026-04-28 09:25 | 59.17721 | 10.25885 | 275 ft | 7 kts | 0° |
| 2026-04-28 09:26 | 59.18002 | 10.25880 | 276 ft | 79 kts | 359° |
| 2026-04-28 09:26 | 59.18780 | 10.25860 | 285 ft | 142 kts | 359° |
| 2026-04-28 09:26 | 59.19864 | 10.25834 | 726 ft | 157 kts | 358° |
| 2026-04-28 09:26 | 59.20953 | 10.25798 | 1537 ft | 157 kts | 1° |
| 2026-04-28 09:27 | 59.23371 | 10.25747 | 2325 ft | 196 kts | 0° |
| 2026-04-28 09:27 | 59.24779 | 10.25713 | 2875 ft | 206 kts | 0° |
| 2026-04-28 09:27 | 59.26190 | 10.26072 | 3553 ft | 207 kts | 25° |
| 2026-04-28 09:28 | 59.27191 | 10.28109 | 4028 ft | 222 kts | 65° |
| 2026-04-28 09:28 | 59.27520 | 10.31243 | 4308 ft | 250 kts | 84° |
| 2026-04-28 09:28 | 59.27560 | 10.34758 | 4928 ft | 264 kts | 89° |
| 2026-04-28 09:28 | 59.27140 | 10.38288 | 5741 ft | 275 kts | 116° |
| 2026-04-28 09:29 | 59.25861 | 10.41122 | 6536 ft | 285 kts | 144° |
| 2026-04-28 09:29 | 59.24090 | 10.42958 | 7311 ft | 291 kts | 153° |
| 2026-04-28 09:29 | 59.22253 | 10.44692 | 8068 ft | 296 kts | 153° |
| 2026-04-28 09:29 | 59.20382 | 10.46455 | 8834 ft | 301 kts | 153° |
| 2026-04-28 09:30 | 59.18482 | 10.48242 | 9587 ft | 306 kts | 152° |
| 2026-04-28 09:30 | 59.16550 | 10.50061 | 10352 ft | 310 kts | 152° |
| 2026-04-28 09:30 | 59.14578 | 10.51920 | 10830 ft | 325 kts | 152° |
| 2026-04-28 09:30 | 59.12473 | 10.53909 | 11013 ft | 348 kts | 152° |
| 2026-04-28 09:31 | 59.10242 | 10.56013 | 11368 ft | 362 kts | 153° |
| 2026-04-28 09:31 | 59.07926 | 10.58067 | 11997 ft | 368 kts | 155° |
| 2026-04-28 09:31 | 59.05553 | 10.60022 | 12669 ft | 372 kts | 156° |
| 2026-04-28 09:31 | 59.03141 | 10.61933 | 13346 ft | 376 kts | 156° |
| 2026-04-28 09:32 | 59.00700 | 10.63843 | 14016 ft | 380 kts | 156° |
| 2026-04-28 09:32 | 58.99070 | 10.65120 | 14434 ft | 383 kts | 156° |
| 2026-04-28 09:32 | 58.96587 | 10.67078 | 15040 ft | 387 kts | 156° |
| 2026-04-28 09:32 | 58.94087 | 10.69069 | 15655 ft | 391 kts | 156° |
| 2026-04-28 09:33 | 58.91568 | 10.71106 | 16257 ft | 394 kts | 153° |
| 2026-04-28 09:33 | 58.89179 | 10.73708 | 16856 ft | 395 kts | 143° |
| 2026-04-28 09:33 | 58.86896 | 10.76708 | 17456 ft | 399 kts | 143° |
| 2026-04-28 09:33 | 58.84586 | 10.79726 | 18063 ft | 403 kts | 143° |
| 2026-04-28 09:34 | 58.82248 | 10.82754 | 18695 ft | 407 kts | 143° |
| 2026-04-28 09:34 | 58.79884 | 10.85797 | 19228 ft | 410 kts | 143° |
| 2026-04-28 09:34 | 58.77497 | 10.88867 | 19746 ft | 414 kts | 143° |
| 2026-04-28 09:34 | 58.75089 | 10.91961 | 20272 ft | 418 kts | 143° |
| 2026-04-28 09:35 | 58.72660 | 10.95076 | 20776 ft | 421 kts | 143° |
| 2026-04-28 09:35 | 58.70209 | 10.98210 | 21303 ft | 425 kts | 143° |
| 2026-04-28 09:35 | 58.67735 | 11.01372 | 21825 ft | 429 kts | 143° |
| 2026-04-28 09:35 | 58.65240 | 11.04563 | 22340 ft | 433 kts | 143° |
| 2026-04-28 09:36 | 58.62722 | 11.07774 | 22857 ft | 436 kts | 142° |
| 2026-04-28 09:36 | 58.60181 | 11.11008 | 23332 ft | 440 kts | 142° |
| 2026-04-28 09:36 | 58.57620 | 11.14262 | 23811 ft | 443 kts | 142° |
| 2026-04-28 09:36 | 58.55039 | 11.17538 | 24227 ft | 447 kts | 142° |
| 2026-04-28 09:37 | 58.52439 | 11.20830 | 24634 ft | 450 kts | 142° |
| 2026-04-28 09:37 | 58.49817 | 11.24135 | 25031 ft | 452 kts | 142° |
| 2026-04-28 09:37 | 58.47183 | 11.27449 | 25415 ft | 455 kts | 142° |
| 2026-04-28 09:37 | 58.44524 | 11.30794 | 25805 ft | 459 kts | 142° |
| 2026-04-28 09:38 | 58.41846 | 11.34158 | 26176 ft | 462 kts | 142° |
| 2026-04-28 09:38 | 58.39155 | 11.37539 | 26560 ft | 465 kts | 142° |
| 2026-04-28 09:38 | 58.36442 | 11.40943 | 26937 ft | 468 kts | 141° |
| 2026-04-28 09:38 | 58.33718 | 11.44351 | 27315 ft | 471 kts | 141° |
| 2026-04-28 09:39 | 58.30971 | 11.47776 | 27672 ft | 473 kts | 141° |
| 2026-04-28 09:39 | 58.28207 | 11.51215 | 28039 ft | 476 kts | 141° |
| 2026-04-28 09:39 | 58.25427 | 11.54668 | 28396 ft | 479 kts | 141° |
| 2026-04-28 09:39 | 58.22629 | 11.58138 | 28763 ft | 482 kts | 141° |
| 2026-04-28 09:40 | 58.19814 | 11.61622 | 29106 ft | 484 kts | 141° |
| 2026-04-28 09:40 | 58.16987 | 11.65125 | 29450 ft | 486 kts | 140° |
| 2026-04-28 09:40 | 58.14187 | 11.68719 | 29783 ft | 488 kts | 139° |
| 2026-04-28 09:40 | 58.11405 | 11.72432 | 30115 ft | 490 kts | 138° |
| 2026-04-28 09:41 | 58.08635 | 11.76213 | 30448 ft | 492 kts | 137° |
| 2026-04-28 09:41 | 58.05859 | 11.80016 | 30733 ft | 495 kts | 137° |
| 2026-04-28 09:41 | 58.03057 | 11.83827 | 31010 ft | 497 kts | 138° |
| 2026-04-28 09:41 | 58.00235 | 11.87626 | 31303 ft | 499 kts | 138° |
| 2026-04-28 09:42 | 57.97400 | 11.91402 | 31676 ft | 499 kts | 138° |
| 2026-04-28 09:42 | 57.94558 | 11.95148 | 32066 ft | 499 kts | 138° |
| 2026-04-28 09:42 | 57.91715 | 11.98878 | 32448 ft | 498 kts | 138° |
| 2026-04-28 09:42 | 57.88875 | 12.02597 | 32860 ft | 496 kts | 138° |
| 2026-04-28 09:43 | 57.86045 | 12.06301 | 33265 ft | 495 kts | 138° |
| 2026-04-28 09:43 | 57.83227 | 12.09999 | 33655 ft | 494 kts | 137° |
| 2026-04-28 09:43 | 57.80409 | 12.13693 | 34020 ft | 494 kts | 137° |
| 2026-04-28 09:43 | 57.77592 | 12.17365 | 34383 ft | 494 kts | 138° |
| 2026-04-28 09:44 | 57.74714 | 12.20904 | 34722 ft | 496 kts | 141° |
| 2026-04-28 09:44 | 57.71769 | 12.24268 | 35026 ft | 496 kts | 143° |
| 2026-04-28 09:44 | 57.68780 | 12.27499 | 35318 ft | 497 kts | 144° |
| 2026-04-28 09:44 | 57.65769 | 12.30668 | 35595 ft | 497 kts | 145° |
| 2026-04-28 09:45 | 57.62758 | 12.33834 | 35880 ft | 496 kts | 145° |
| 2026-04-28 09:45 | 57.59758 | 12.37032 | 36160 ft | 496 kts | 144° |
| 2026-04-28 09:45 | 57.56776 | 12.40259 | 36437 ft | 495 kts | 144° |
| 2026-04-28 09:45 | 57.53814 | 12.43493 | 36723 ft | 494 kts | 144° |
| 2026-04-28 09:46 | 57.50852 | 12.46734 | 36985 ft | 493 kts | 145° |
| 2026-04-28 09:46 | 57.47894 | 12.49970 | 37228 ft | 493 kts | 145° |
| 2026-04-28 09:46 | 57.44940 | 12.53204 | 37411 ft | 494 kts | 145° |
| 2026-04-28 09:46 | 57.41980 | 12.56431 | 37445 ft | 494 kts | 145° |
| 2026-04-28 09:47 | 57.36039 | 12.62833 | 37484 ft | 493 kts | 146° |
| 2026-04-28 09:47 | 57.30105 | 12.69186 | 37442 ft | 493 kts | 146° |
| 2026-04-28 09:48 | 57.24184 | 12.75545 | 37430 ft | 491 kts | 146° |
| 2026-04-28 09:48 | 57.18282 | 12.81863 | 37428 ft | 491 kts | 146° |
| 2026-04-28 09:49 | 57.12400 | 12.88104 | 37424 ft | 491 kts | 146° |
| 2026-04-28 09:49 | 57.06472 | 12.94370 | 37430 ft | 492 kts | 146° |
| 2026-04-28 09:50 | 57.00532 | 13.00619 | 37434 ft | 492 kts | 146° |
| 2026-04-28 09:50 | 56.94594 | 13.06861 | 37450 ft | 491 kts | 147° |
| 2026-04-28 09:51 | 56.88673 | 13.13078 | 37432 ft | 490 kts | 147° |
| 2026-04-28 09:51 | 56.82750 | 13.19270 | 37432 ft | 490 kts | 147° |
| 2026-04-28 09:52 | 56.76831 | 13.25438 | 37429 ft | 490 kts | 147° |
| 2026-04-28 09:52 | 56.70899 | 13.31577 | 37421 ft | 490 kts | 147° |
| 2026-04-28 09:53 | 56.64962 | 13.37690 | 37406 ft | 490 kts | 147° |
| 2026-04-28 09:53 | 56.59026 | 13.43776 | 37413 ft | 490 kts | 147° |
| 2026-04-28 09:54 | 56.53110 | 13.49833 | 37388 ft | 487 kts | 148° |
| 2026-04-28 09:54 | 56.47198 | 13.55865 | 37389 ft | 488 kts | 148° |
| 2026-04-28 09:55 | 56.41285 | 13.61889 | 37398 ft | 488 kts | 148° |
| 2026-04-28 09:55 | 56.35362 | 13.67905 | 37381 ft | 489 kts | 148° |
| 2026-04-28 09:56 | 56.29472 | 13.73847 | 37397 ft | 489 kts | 148° |
| 2026-04-28 09:56 | 56.23535 | 13.79820 | 37404 ft | 489 kts | 148° |
| 2026-04-28 09:57 | 56.17599 | 13.85767 | 37385 ft | 488 kts | 148° |
| 2026-04-28 09:57 | 56.11680 | 13.91679 | 37384 ft | 487 kts | 148° |
| 2026-04-28 09:58 | 56.05753 | 13.97578 | 37391 ft | 488 kts | 149° |
| 2026-04-28 09:58 | 55.99820 | 14.03472 | 37387 ft | 488 kts | 149° |
| 2026-04-28 09:59 | 55.93882 | 14.09355 | 37399 ft | 488 kts | 149° |
| 2026-04-28 09:59 | 55.87940 | 14.15204 | 37404 ft | 488 kts | 149° |
| 2026-04-28 10:00 | 55.81987 | 14.21034 | 37447 ft | 488 kts | 149° |
| 2026-04-28 10:00 | 55.76045 | 14.26847 | 37386 ft | 487 kts | 149° |
| 2026-04-28 10:01 | 55.70109 | 14.32630 | 37386 ft | 487 kts | 149° |
| 2026-04-28 10:01 | 55.64162 | 14.38413 | 37406 ft | 488 kts | 149° |
| 2026-04-28 10:02 | 55.58207 | 14.44174 | 37421 ft | 488 kts | 150° |
| 2026-04-28 10:02 | 55.52249 | 14.49917 | 37428 ft | 488 kts | 150° |
| 2026-04-28 10:03 | 55.46325 | 14.55616 | 37429 ft | 488 kts | 150° |
| 2026-04-28 10:03 | 55.40358 | 14.61332 | 37411 ft | 487 kts | 150° |
| 2026-04-28 10:04 | 55.34402 | 14.67023 | 37412 ft | 487 kts | 150° |
| 2026-04-28 10:04 | 55.28405 | 14.72735 | 37411 ft | 488 kts | 150° |
| 2026-04-28 10:05 | 55.22474 | 14.78353 | 37411 ft | 488 kts | 150° |
| 2026-04-28 10:05 | 55.16496 | 14.83987 | 37408 ft | 488 kts | 150° |
| 2026-04-28 10:06 | 55.10477 | 14.89651 | 37403 ft | 488 kts | 150° |
| 2026-04-28 10:06 | 55.04535 | 14.95231 | 37429 ft | 488 kts | 151° |
| 2026-04-28 10:07 | 54.98547 | 15.00825 | 37436 ft | 488 kts | 151° |
| 2026-04-28 10:07 | 54.92550 | 15.06406 | 37432 ft | 489 kts | 151° |
| 2026-04-28 10:08 | 54.86409 | 15.11460 | 37429 ft | 489 kts | 158° |
| 2026-04-28 10:08 | 54.80063 | 15.15715 | 37421 ft | 489 kts | 159° |
| 2026-04-28 10:09 | 54.73716 | 15.19950 | 37431 ft | 489 kts | 159° |
| 2026-04-28 10:09 | 54.67371 | 15.24170 | 37433 ft | 489 kts | 159° |
| 2026-04-28 10:10 | 54.61023 | 15.28373 | 37397 ft | 487 kts | 159° |
| 2026-04-28 10:10 | 54.54695 | 15.32550 | 37391 ft | 487 kts | 159° |
| 2026-04-28 10:11 | 54.48359 | 15.36728 | 37417 ft | 488 kts | 159° |
| 2026-04-28 10:11 | 54.42021 | 15.40883 | 37427 ft | 488 kts | 159° |
| 2026-04-28 10:12 | 54.35682 | 15.45031 | 37431 ft | 488 kts | 159° |
| 2026-04-28 10:12 | 54.29342 | 15.49175 | 37432 ft | 488 kts | 159° |
| 2026-04-28 10:13 | 54.22998 | 15.53307 | 37408 ft | 488 kts | 160° |
| 2026-04-28 10:13 | 54.16654 | 15.57423 | 37426 ft | 487 kts | 160° |
| 2026-04-28 10:14 | 54.10312 | 15.61516 | 37421 ft | 487 kts | 160° |
| 2026-04-28 10:14 | 54.03969 | 15.65593 | 37422 ft | 487 kts | 160° |
| 2026-04-28 10:15 | 53.97625 | 15.69660 | 37396 ft | 487 kts | 160° |
| 2026-04-28 10:15 | 53.91281 | 15.73721 | 37409 ft | 487 kts | 160° |
| 2026-04-28 10:16 | 53.85252 | 15.77566 | 37413 ft | 487 kts | 160° |
| 2026-04-28 10:16 | 53.78835 | 15.81645 | 37390 ft | 498 kts | 160° |
| 2026-04-28 10:17 | 53.72315 | 15.85771 | 37376 ft | 502 kts | 160° |
| 2026-04-28 10:17 | 53.65760 | 15.89900 | 37383 ft | 503 kts | 160° |
| 2026-04-28 10:18 | 53.59196 | 15.94033 | 37379 ft | 503 kts | 160° |
| 2026-04-28 10:18 | 53.53743 | 15.97468 | 37385 ft | 503 kts | 160° |
| 2026-04-28 10:19 | 53.47170 | 16.01580 | 37390 ft | 504 kts | 161° |
| 2026-04-28 10:19 | 53.39476 | 16.06365 | 37377 ft | 505 kts | 161° |
| 2026-04-28 10:20 | 53.33962 | 16.09805 | 37394 ft | 505 kts | 161° |
| 2026-04-28 10:20 | 53.27375 | 16.13895 | 37412 ft | 505 kts | 161° |
| 2026-04-28 10:21 | 53.20815 | 16.17927 | 37402 ft | 506 kts | 161° |
| 2026-04-28 10:21 | 53.14213 | 16.21973 | 37401 ft | 506 kts | 161° |
| 2026-04-28 10:22 | 53.07613 | 16.26026 | 37394 ft | 505 kts | 161° |
| 2026-04-28 10:22 | 53.01017 | 16.30063 | 37400 ft | 505 kts | 161° |
| 2026-04-28 10:23 | 52.94420 | 16.34077 | 37402 ft | 505 kts | 161° |
| 2026-04-28 10:23 | 52.87821 | 16.38087 | 37414 ft | 505 kts | 161° |
| 2026-04-28 10:24 | 52.81222 | 16.42075 | 37396 ft | 505 kts | 162° |
| 2026-04-28 10:24 | 52.74620 | 16.46041 | 37399 ft | 504 kts | 162° |
| 2026-04-28 10:25 | 52.68026 | 16.50009 | 37392 ft | 504 kts | 161° |
| 2026-04-28 10:25 | 52.61439 | 16.53970 | 37389 ft | 504 kts | 162° |
| 2026-04-28 10:26 | 52.54848 | 16.57919 | 37373 ft | 504 kts | 162° |
| 2026-04-28 10:26 | 52.48267 | 16.61837 | 37382 ft | 503 kts | 162° |
| 2026-04-28 10:27 | 52.41689 | 16.65737 | 37383 ft | 502 kts | 162° |
| 2026-04-28 10:27 | 52.35117 | 16.69618 | 37380 ft | 502 kts | 162° |
| 2026-04-28 10:28 | 52.28584 | 16.73467 | 37381 ft | 502 kts | 162° |
| 2026-04-28 10:29 | 52.18720 | 16.79272 | 37385 ft | 503 kts | 162° |
| 2026-04-28 10:29 | 52.12136 | 16.83122 | 37388 ft | 503 kts | 162° |
| 2026-04-28 10:30 | 52.05550 | 16.86959 | 37380 ft | 503 kts | 162° |
| 2026-04-28 10:30 | 51.98968 | 16.90796 | 37378 ft | 503 kts | 162° |
| 2026-04-28 10:31 | 51.92388 | 16.94612 | 37374 ft | 502 kts | 163° |
| 2026-04-28 10:31 | 51.85804 | 16.98414 | 37377 ft | 502 kts | 163° |
| 2026-04-28 10:32 | 51.79224 | 17.02206 | 37375 ft | 502 kts | 163° |
| 2026-04-28 10:32 | 51.72650 | 17.05984 | 37360 ft | 501 kts | 163° |
| 2026-04-28 10:33 | 51.66076 | 17.09748 | 37365 ft | 501 kts | 163° |
| 2026-04-28 10:33 | 51.59507 | 17.13495 | 37380 ft | 501 kts | 163° |
| 2026-04-28 10:34 | 51.52931 | 17.17239 | 37368 ft | 501 kts | 163° |
| 2026-04-28 10:34 | 51.46361 | 17.20974 | 37348 ft | 501 kts | 163° |
| 2026-04-28 10:35 | 51.39787 | 17.24680 | 37355 ft | 501 kts | 163° |
| 2026-04-28 10:35 | 51.33213 | 17.28388 | 37353 ft | 501 kts | 163° |
| 2026-04-28 10:36 | 51.26644 | 17.32090 | 37353 ft | 501 kts | 163° |
| 2026-04-28 10:36 | 51.20076 | 17.35770 | 37331 ft | 500 kts | 163° |
| 2026-04-28 10:37 | 51.13496 | 17.39440 | 37341 ft | 501 kts | 163° |
| 2026-04-28 10:37 | 51.06917 | 17.43117 | 37341 ft | 501 kts | 163° |
| 2026-04-28 10:38 | 51.00339 | 17.46770 | 37337 ft | 501 kts | 163° |
| 2026-04-28 10:38 | 50.93753 | 17.50411 | 37329 ft | 501 kts | 164° |
| 2026-04-28 10:39 | 50.87168 | 17.54039 | 37330 ft | 501 kts | 164° |
| 2026-04-28 10:39 | 50.80575 | 17.57663 | 37337 ft | 501 kts | 164° |
| 2026-04-28 10:40 | 50.73989 | 17.61275 | 37337 ft | 501 kts | 164° |
| 2026-04-28 10:40 | 50.67393 | 17.64885 | 37311 ft | 502 kts | 164° |
| 2026-04-28 10:41 | 50.60799 | 17.68488 | 37314 ft | 502 kts | 164° |
| 2026-04-28 10:41 | 50.54204 | 17.72075 | 37316 ft | 502 kts | 165° |
| 2026-04-28 10:42 | 50.47601 | 17.75646 | 37323 ft | 502 kts | 165° |
| 2026-04-28 10:42 | 50.40999 | 17.79210 | 37295 ft | 502 kts | 165° |
| 2026-04-28 10:43 | 50.34390 | 17.82787 | 37317 ft | 503 kts | 165° |
| 2026-04-28 10:43 | 50.27777 | 17.86346 | 37311 ft | 503 kts | 165° |
| 2026-04-28 10:44 | 50.21200 | 17.89867 | 37304 ft | 503 kts | 165° |
| 2026-04-28 10:44 | 50.14579 | 17.93406 | 37286 ft | 503 kts | 165° |
| 2026-04-28 10:45 | 50.07964 | 17.96938 | 37295 ft | 503 kts | 165° |
| 2026-04-28 10:45 | 50.01393 | 18.00721 | 37290 ft | 506 kts | 158° |
| 2026-04-28 10:46 | 49.95000 | 18.05326 | 37296 ft | 507 kts | 159° |
| 2026-04-28 10:46 | 49.88599 | 18.09914 | 37272 ft | 506 kts | 159° |
| 2026-04-28 10:47 | 49.82208 | 18.14476 | 37288 ft | 505 kts | 159° |
| 2026-04-28 10:47 | 49.75822 | 18.19014 | 37298 ft | 505 kts | 159° |
| 2026-04-28 10:48 | 49.69439 | 18.23561 | 37296 ft | 505 kts | 159° |
| 2026-04-28 10:48 | 49.63057 | 18.28082 | 37302 ft | 505 kts | 159° |
| 2026-04-28 10:49 | 49.56664 | 18.32572 | 37287 ft | 505 kts | 159° |
| 2026-04-28 10:49 | 49.50262 | 18.37066 | 37290 ft | 505 kts | 159° |
| 2026-04-28 10:50 | 49.43868 | 18.41560 | 37239 ft | 505 kts | 159° |
| 2026-04-28 10:50 | 49.37517 | 18.46021 | 37204 ft | 505 kts | 159° |
| 2026-04-28 10:51 | 49.31155 | 18.50607 | 37220 ft | 505 kts | 158° |
| 2026-04-28 10:51 | 49.24810 | 18.55246 | 37223 ft | 505 kts | 159° |
| 2026-04-28 10:52 | 49.18457 | 18.59845 | 37238 ft | 505 kts | 159° |
| 2026-04-28 10:52 | 49.12088 | 18.64390 | 37199 ft | 504 kts | 161° |
| 2026-04-28 10:53 | 49.05447 | 18.67408 | 37214 ft | 497 kts | 171° |
| 2026-04-28 10:53 | 48.98736 | 18.69926 | 37213 ft | 497 kts | 171° |
| 2026-04-28 10:54 | 48.92021 | 18.72459 | 37219 ft | 497 kts | 171° |
| 2026-04-28 10:54 | 48.85300 | 18.74979 | 37196 ft | 498 kts | 171° |
| 2026-04-28 10:55 | 48.78576 | 18.77488 | 37211 ft | 498 kts | 171° |
| 2026-04-28 10:55 | 48.71846 | 18.79986 | 37211 ft | 498 kts | 171° |
| 2026-04-28 10:56 | 48.65115 | 18.82480 | 37216 ft | 498 kts | 171° |
| 2026-04-28 10:56 | 48.58386 | 18.84980 | 37207 ft | 498 kts | 171° |
| 2026-04-28 10:57 | 48.51655 | 18.87476 | 37212 ft | 498 kts | 171° |
| 2026-04-28 10:57 | 48.44915 | 18.89959 | 37219 ft | 498 kts | 171° |
| 2026-04-28 10:58 | 48.38181 | 18.92430 | 37196 ft | 498 kts | 171° |
| 2026-04-28 10:58 | 48.31438 | 18.94904 | 37208 ft | 499 kts | 171° |
| 2026-04-28 10:59 | 48.24739 | 18.97347 | 37213 ft | 499 kts | 171° |
| 2026-04-28 10:59 | 48.17991 | 18.99803 | 37218 ft | 499 kts | 171° |
| 2026-04-28 11:00 | 48.11245 | 19.02255 | 37198 ft | 499 kts | 172° |
| 2026-04-28 11:00 | 48.04492 | 19.04706 | 37217 ft | 499 kts | 172° |
| 2026-04-28 11:01 | 47.97735 | 19.07149 | 37220 ft | 500 kts | 172° |
| 2026-04-28 11:01 | 47.90974 | 19.09591 | 37197 ft | 500 kts | 172° |
| 2026-04-28 11:02 | 47.84207 | 19.12034 | 37212 ft | 500 kts | 172° |
| 2026-04-28 11:02 | 47.77391 | 19.14470 | 37218 ft | 501 kts | 172° |
| 2026-04-28 11:03 | 47.71757 | 19.16483 | 37222 ft | 501 kts | 172° |
| 2026-04-28 11:03 | 47.64173 | 19.19185 | 37206 ft | 501 kts | 172° |
| 2026-04-28 11:04 | 47.57389 | 19.21594 | 37214 ft | 501 kts | 172° |
| 2026-04-28 11:04 | 47.50601 | 19.24001 | 37213 ft | 502 kts | 172° |
| 2026-04-28 11:05 | 47.43811 | 19.26403 | 37208 ft | 502 kts | 172° |
| 2026-04-28 11:05 | 47.38121 | 19.28409 | 37214 ft | 502 kts | 172° |
| 2026-04-28 11:06 | 47.31332 | 19.30811 | 37221 ft | 502 kts | 172° |
| 2026-04-28 11:06 | 47.24537 | 19.33200 | 37218 ft | 502 kts | 172° |
| 2026-04-28 11:07 | 47.17740 | 19.35576 | 37216 ft | 502 kts | 172° |
| 2026-04-28 11:07 | 47.10986 | 19.37940 | 37225 ft | 502 kts | 172° |
| 2026-04-28 11:08 | 47.04192 | 19.40318 | 37207 ft | 502 kts | 172° |
| 2026-04-28 11:08 | 46.97390 | 19.42675 | 37177 ft | 502 kts | 173° |
| 2026-04-28 11:09 | 46.90586 | 19.45024 | 37198 ft | 502 kts | 172° |
| 2026-04-28 11:09 | 46.83781 | 19.47383 | 37199 ft | 502 kts | 172° |
| 2026-04-28 11:10 | 46.76979 | 19.49724 | 37210 ft | 502 kts | 172° |
| 2026-04-28 11:10 | 46.70176 | 19.52066 | 37192 ft | 502 kts | 172° |
| 2026-04-28 11:11 | 46.63370 | 19.54404 | 37202 ft | 502 kts | 172° |
| 2026-04-28 11:11 | 46.56552 | 19.55708 | 37200 ft | 489 kts | 186° |
| 2026-04-28 11:12 | 46.49747 | 19.55783 | 37183 ft | 489 kts | 186° |
| 2026-04-28 11:12 | 46.42941 | 19.55829 | 37197 ft | 489 kts | 186° |
| 2026-04-28 11:13 | 46.36135 | 19.55880 | 37200 ft | 489 kts | 186° |
| 2026-04-28 11:13 | 46.29331 | 19.55939 | 37184 ft | 488 kts | 186° |
| 2026-04-28 11:14 | 46.22578 | 19.56015 | 37195 ft | 488 kts | 186° |
| 2026-04-28 11:14 | 46.15788 | 19.56086 | 37198 ft | 488 kts | 186° |
| 2026-04-28 11:15 | 46.08996 | 19.56142 | 37178 ft | 488 kts | 186° |
| 2026-04-28 11:15 | 46.02205 | 19.56202 | 37193 ft | 488 kts | 186° |
| 2026-04-28 11:16 | 45.95424 | 19.56265 | 37194 ft | 488 kts | 186° |
| 2026-04-28 11:16 | 45.88632 | 19.56328 | 37166 ft | 487 kts | 186° |
| 2026-04-28 11:17 | 45.81851 | 19.56389 | 37183 ft | 487 kts | 186° |
| 2026-04-28 11:17 | 45.75073 | 19.56455 | 37186 ft | 487 kts | 186° |
| 2026-04-28 11:18 | 45.68292 | 19.56518 | 37166 ft | 487 kts | 186° |
| 2026-04-28 11:18 | 45.61515 | 19.56576 | 37183 ft | 487 kts | 185° |
| 2026-04-28 11:19 | 45.54743 | 19.56640 | 37191 ft | 487 kts | 185° |
| 2026-04-28 11:19 | 45.48014 | 19.56706 | 37188 ft | 487 kts | 185° |
| 2026-04-28 11:20 | 45.41243 | 19.56768 | 37174 ft | 486 kts | 185° |
| 2026-04-28 11:20 | 45.34474 | 19.56827 | 37182 ft | 486 kts | 185° |
| 2026-04-28 11:21 | 45.27713 | 19.56890 | 37183 ft | 486 kts | 185° |
| 2026-04-28 11:21 | 45.20950 | 19.56949 | 37175 ft | 486 kts | 185° |
| 2026-04-28 11:22 | 45.14189 | 19.57013 | 37190 ft | 486 kts | 185° |
| 2026-04-28 11:22 | 45.07434 | 19.57075 | 37182 ft | 486 kts | 185° |
| 2026-04-28 11:23 | 45.00676 | 19.57138 | 37178 ft | 485 kts | 185° |
| 2026-04-28 11:23 | 44.93922 | 19.57192 | 37176 ft | 485 kts | 185° |
| 2026-04-28 11:24 | 44.87166 | 19.57249 | 37175 ft | 485 kts | 185° |
| 2026-04-28 11:24 | 44.80417 | 19.57310 | 37162 ft | 485 kts | 185° |
| 2026-04-28 11:25 | 44.73666 | 19.57370 | 37165 ft | 485 kts | 185° |
| 2026-04-28 11:25 | 44.66914 | 19.57432 | 37165 ft | 485 kts | 185° |
| 2026-04-28 11:26 | 44.60175 | 19.57471 | 37157 ft | 484 kts | 186° |
| 2026-04-28 11:26 | 44.53459 | 19.57215 | 37174 ft | 482 kts | 188° |
| 2026-04-28 11:27 | 44.46757 | 19.56790 | 37163 ft | 482 kts | 188° |
| 2026-04-28 11:27 | 44.40057 | 19.56407 | 37153 ft | 482 kts | 187° |
| 2026-04-28 11:28 | 44.33357 | 19.56090 | 37155 ft | 482 kts | 187° |
| 2026-04-28 11:28 | 44.26656 | 19.55796 | 37129 ft | 482 kts | 187° |
| 2026-04-28 11:29 | 44.19967 | 19.55493 | 37146 ft | 481 kts | 187° |
| 2026-04-28 11:29 | 44.13283 | 19.55169 | 37148 ft | 480 kts | 187° |
| 2026-04-28 11:30 | 44.06646 | 19.54844 | 37121 ft | 480 kts | 187° |
| 2026-04-28 11:30 | 43.96635 | 19.54366 | 37145 ft | 480 kts | 187° |
| 2026-04-28 11:31 | 43.89963 | 19.54061 | 37138 ft | 480 kts | 187° |
| 2026-04-28 11:31 | 43.83287 | 19.53756 | 37115 ft | 480 kts | 186° |
| 2026-04-28 11:32 | 43.76612 | 19.53441 | 37120 ft | 480 kts | 187° |
| 2026-04-28 11:32 | 43.69937 | 19.53126 | 37122 ft | 480 kts | 187° |
| 2026-04-28 11:33 | 43.63257 | 19.52812 | 37112 ft | 480 kts | 187° |
| 2026-04-28 11:33 | 43.56595 | 19.52500 | 36892 ft | 477 kts | 187° |
| 2026-04-28 11:34 | 43.53280 | 19.52349 | 36666 ft | 475 kts | 186° |
| 2026-04-28 11:34 | 43.49985 | 19.52194 | 36403 ft | 473 kts | 187° |
| 2026-04-28 11:34 | 43.46713 | 19.52035 | 36127 ft | 469 kts | 186° |
| 2026-04-28 11:34 | 43.43455 | 19.51877 | 35870 ft | 467 kts | 186° |
| 2026-04-28 11:35 | 43.40213 | 19.51725 | 35612 ft | 465 kts | 186° |
| 2026-04-28 11:35 | 43.36991 | 19.51577 | 35363 ft | 463 kts | 186° |
| 2026-04-28 11:35 | 43.33777 | 19.51433 | 35114 ft | 461 kts | 186° |
| 2026-04-28 11:35 | 43.30577 | 19.51286 | 34859 ft | 459 kts | 186° |
| 2026-04-28 11:36 | 43.27393 | 19.51138 | 34602 ft | 457 kts | 186° |
| 2026-04-28 11:36 | 43.24222 | 19.50990 | 34360 ft | 455 kts | 186° |
| 2026-04-28 11:36 | 43.21067 | 19.50841 | 34120 ft | 453 kts | 186° |
| 2026-04-28 11:36 | 43.17961 | 19.50694 | 33854 ft | 451 kts | 186° |
| 2026-04-28 11:37 | 43.14829 | 19.50549 | 33576 ft | 450 kts | 186° |
| 2026-04-28 11:37 | 43.11703 | 19.50407 | 33298 ft | 449 kts | 185° |
| 2026-04-28 11:37 | 43.08593 | 19.50265 | 33021 ft | 447 kts | 186° |
| 2026-04-28 11:37 | 43.05487 | 19.50122 | 32778 ft | 446 kts | 186° |
| 2026-04-28 11:38 | 43.02387 | 19.49979 | 32510 ft | 445 kts | 186° |
| 2026-04-28 11:38 | 42.99298 | 19.49840 | 32244 ft | 444 kts | 185° |
| 2026-04-28 11:38 | 42.96211 | 19.49707 | 31983 ft | 443 kts | 185° |
| 2026-04-28 11:38 | 42.93137 | 19.49576 | 31728 ft | 442 kts | 185° |
| 2026-04-28 11:39 | 42.90067 | 19.49446 | 31457 ft | 440 kts | 185° |
| 2026-04-28 11:39 | 42.87012 | 19.49310 | 31206 ft | 439 kts | 185° |
| 2026-04-28 11:39 | 42.83971 | 19.49172 | 30960 ft | 437 kts | 185° |
| 2026-04-28 11:39 | 42.80929 | 19.49035 | 30719 ft | 437 kts | 185° |
| 2026-04-28 11:40 | 42.77894 | 19.48896 | 30467 ft | 435 kts | 185° |
| 2026-04-28 11:40 | 42.74870 | 19.48756 | 30225 ft | 434 kts | 185° |
| 2026-04-28 11:40 | 42.71855 | 19.48616 | 29948 ft | 432 kts | 185° |
| 2026-04-28 11:40 | 42.68857 | 19.48460 | 29646 ft | 430 kts | 185° |
| 2026-04-28 11:41 | 42.65838 | 19.48308 | 28671 ft | 438 kts | 185° |
| 2026-04-28 11:41 | 42.62811 | 19.48169 | 28352 ft | 430 kts | 185° |
| 2026-04-28 11:41 | 42.59854 | 19.48045 | 28110 ft | 421 kts | 184° |
| 2026-04-28 11:41 | 42.56947 | 19.47924 | 27735 ft | 416 kts | 185° |
| 2026-04-28 11:42 | 42.54068 | 19.47800 | 27302 ft | 413 kts | 185° |
| 2026-04-28 11:42 | 42.51166 | 19.47670 | 26361 ft | 422 kts | 184° |
| 2026-04-28 11:42 | 42.48227 | 19.47535 | 25704 ft | 423 kts | 184° |
| 2026-04-28 11:42 | 42.45315 | 19.47405 | 24741 ft | 415 kts | 184° |
| 2026-04-28 11:43 | 42.42445 | 19.47278 | 23739 ft | 410 kts | 184° |
| 2026-04-28 11:43 | 42.39611 | 19.47155 | 22651 ft | 404 kts | 184° |
| 2026-04-28 11:43 | 42.36827 | 19.47038 | 21612 ft | 397 kts | 184° |
| 2026-04-28 11:43 | 42.34089 | 19.46922 | 20575 ft | 391 kts | 184° |
| 2026-04-28 11:44 | 42.31398 | 19.46807 | 19576 ft | 384 kts | 184° |
| 2026-04-28 11:44 | 42.28751 | 19.46690 | 18609 ft | 377 kts | 184° |
| 2026-04-28 11:44 | 42.26147 | 19.46572 | 17540 ft | 372 kts | 184° |
| 2026-04-28 11:44 | 42.23627 | 19.46457 | 17056 ft | 350 kts | 184° |
| 2026-04-28 11:45 | 42.21260 | 19.46351 | 16692 ft | 335 kts | 184° |
| 2026-04-28 11:45 | 42.18938 | 19.46247 | 16273 ft | 333 kts | 184° |
| 2026-04-28 11:45 | 42.16659 | 19.46141 | 15868 ft | 331 kts | 184° |
| 2026-04-28 11:45 | 42.14361 | 19.46034 | 15457 ft | 330 kts | 184° |
| 2026-04-28 11:46 | 42.12078 | 19.45932 | 15054 ft | 328 kts | 184° |
| 2026-04-28 11:46 | 42.09804 | 19.45832 | 14654 ft | 326 kts | 184° |
| 2026-04-28 11:46 | 42.07543 | 19.45732 | 14258 ft | 324 kts | 184° |
| 2026-04-28 11:46 | 42.05293 | 19.45632 | 13856 ft | 323 kts | 184° |
| 2026-04-28 11:47 | 42.03052 | 19.45532 | 13419 ft | 321 kts | 184° |
| 2026-04-28 11:47 | 42.00828 | 19.45432 | 13035 ft | 318 kts | 184° |
| 2026-04-28 11:47 | 41.98626 | 19.45346 | 12659 ft | 315 kts | 181° |
| 2026-04-28 11:47 | 41.96455 | 19.45658 | 12279 ft | 314 kts | 171° |
| 2026-04-28 11:48 | 41.94314 | 19.46178 | 11894 ft | 312 kts | 170° |
| 2026-04-28 11:48 | 41.92186 | 19.46690 | 11511 ft | 310 kts | 170° |
| 2026-04-28 11:48 | 41.90072 | 19.47197 | 11131 ft | 308 kts | 170° |
| 2026-04-28 11:48 | 41.87970 | 19.47698 | 10756 ft | 306 kts | 170° |
| 2026-04-28 11:49 | 41.85876 | 19.48193 | 10365 ft | 304 kts | 170° |
| 2026-04-28 11:49 | 41.83795 | 19.48684 | 10009 ft | 298 kts | 170° |
| 2026-04-28 11:49 | 41.81795 | 19.49157 | 9462 ft | 286 kts | 170° |
| 2026-04-28 11:49 | 41.79839 | 19.49623 | 9319 ft | 288 kts | 170° |
| 2026-04-28 11:50 | 41.77852 | 19.50094 | 8829 ft | 291 kts | 170° |
| 2026-04-28 11:50 | 41.75862 | 19.50564 | 8478 ft | 289 kts | 170° |
| 2026-04-28 11:50 | 41.73868 | 19.51034 | 8014 ft | 290 kts | 171° |
| 2026-04-28 11:50 | 41.71894 | 19.51501 | 7693 ft | 287 kts | 171° |
| 2026-04-28 11:51 | 41.69942 | 19.51962 | 7180 ft | 282 kts | 171° |
| 2026-04-28 11:51 | 41.68013 | 19.52416 | 6396 ft | 281 kts | 171° |
| 2026-04-28 11:51 | 41.66170 | 19.53164 | 5780 ft | 276 kts | 150° |
| 2026-04-28 11:51 | 41.65167 | 19.54189 | 5449 ft | 275 kts | 132° |
| 2026-04-28 11:52 | 41.64210 | 19.56369 | 4940 ft | 271 kts | 104° |
| 2026-04-28 11:52 | 41.64095 | 19.58744 | 4806 ft | 243 kts | 82° |
| 2026-04-28 11:52 | 41.64269 | 19.60930 | 4762 ft | 232 kts | 83° |
| 2026-04-28 11:52 | 41.64424 | 19.63015 | 4667 ft | 219 kts | 83° |
| 2026-04-28 11:53 | 41.64569 | 19.65017 | 4569 ft | 214 kts | 83° |
| 2026-04-28 11:53 | 41.64549 | 19.67000 | 4458 ft | 214 kts | 106° |
| 2026-04-28 11:53 | 41.63728 | 19.68628 | 4335 ft | 215 kts | 143° |
| 2026-04-28 11:53 | 41.62343 | 19.69315 | 4022 ft | 215 kts | 175° |
| 2026-04-28 11:54 | 41.60852 | 19.69493 | 3695 ft | 213 kts | 176° |
| 2026-04-28 11:54 | 41.59403 | 19.69671 | 3380 ft | 204 kts | 175° |
| 2026-04-28 11:54 | 41.58026 | 19.69852 | 3109 ft | 195 kts | 175° |
| 2026-04-28 11:54 | 41.56697 | 19.70028 | 2854 ft | 189 kts | 175° |
| 2026-04-28 11:55 | 41.55401 | 19.70201 | 2596 ft | 184 kts | 175° |
| 2026-04-28 11:55 | 41.54162 | 19.70367 | 2371 ft | 176 kts | 175° |
| 2026-04-28 11:55 | 41.52983 | 19.70524 | 2164 ft | 162 kts | 175° |
| 2026-04-28 11:55 | 41.51909 | 19.70668 | 1948 ft | 150 kts | 175° |
| 2026-04-28 11:56 | 41.50899 | 19.70802 | 1730 ft | 145 kts | 176° |
| 2026-04-28 11:56 | 41.49896 | 19.70936 | 1525 ft | 143 kts | 176° |
| 2026-04-28 11:56 | 41.48904 | 19.71067 | 1353 ft | 143 kts | 178° |
| 2026-04-28 11:56 | 41.47907 | 19.71201 | 1154 ft | 144 kts | 178° |
| 2026-04-28 11:57 | 41.46916 | 19.71333 | 968 ft | 143 kts | 178° |
| 2026-04-28 11:57 | 41.45917 | 19.71465 | 783 ft | 146 kts | 178° |
| 2026-04-28 11:57 | 41.44909 | 19.71599 | 600 ft | 145 kts | 179° |
| 2026-04-28 11:57 | 41.43900 | 19.71732 | 399 ft | 146 kts | 179° |
| 2026-04-28 11:58 | 41.42906 | 19.71872 | 223 ft | 143 kts | 177° |
| 2026-04-28 11:58 | 41.41964 | 19.71991 | 121 ft | 119 kts | 175° |
| 2026-04-28 11:58 | 41.41312 | 19.72078 | 129 ft | 69 kts | 174° |
| 2026-04-28 11:58 | 41.40940 | 19.72124 | 133 ft | 50 kts | 175° |
| 2026-04-28 11:59 | 41.40717 | 19.72152 | 134 ft | 15 kts | 181° |
| 2026-04-28 11:59 | 41.40669 | 19.72041 | 132 ft | 16 kts | 257° |
| 2026-04-28 11:59 | 41.40642 | 19.71885 | 132 ft | 18 kts | 257° |
| 2026-04-28 11:59 | 41.40696 | 19.71771 | 132 ft | 17 kts | 345° |
| 2026-04-28 12:00 | 41.40822 | 19.71744 | 132 ft | 19 kts | 348° |
| 2026-04-28 12:00 | 41.40958 | 19.71711 | 130 ft | 19 kts | 355° |
| 2026-04-28 12:00 | 41.41095 | 19.71694 | 130 ft | 20 kts | 354° |
| 2026-04-28 12:00 | 41.41230 | 19.71677 | 128 ft | 19 kts | 354° |
| 2026-04-28 12:01 | 41.41369 | 19.71658 | 128 ft | 21 kts | 354° |
| 2026-04-28 12:01 | 41.41521 | 19.71636 | 124 ft | 23 kts | 354° |
| 2026-04-28 12:01 | 41.41682 | 19.71616 | 121 ft | 23 kts | 354° |
| 2026-04-28 12:01 | 41.41809 | 19.71600 | 124 ft | 17 kts | 354° |
| 2026-04-28 12:02 | 41.41918 | 19.71585 | 120 ft | 15 kts | 354° |
| 2026-04-28 12:02 | 41.42016 | 19.71572 | 121 ft | 13 kts | 354° |
| 2026-04-28 12:02 | 41.42104 | 19.71561 | 121 ft | 12 kts | 355° |
| 2026-04-28 12:02 | 41.42177 | 19.71538 | 119 ft | 9 kts | 313° |
| 2026-04-28 12:03 | 41.42182 | 19.71488 | 120 ft | 3 kts | 267° |
| 2026-04-28 12:03 | 41.42182 | 19.71483 | 120 ft | 0 kts | 266° |